createdAt,value
2023-11-24T00:01:31.187Z,98916.54
2023-11-24T00:04:00.361Z,98908.66
2023-11-24T00:06:29.830Z,98907.69
2023-11-24T00:08:57.988Z,98899.95
2023-11-24T00:11:27.517Z,98898.92
2023-11-24T00:13:55.705Z,98902.57
2023-11-24T00:16:24.121Z,98899.36
2023-11-24T00:18:52.388Z,98906.70
2023-11-24T00:21:20.501Z,98906.50
2023-11-24T00:23:48.734Z,98907.74
2023-11-24T00:26:18.530Z,98902.75
2023-11-24T00:28:56.615Z,98909.63
2023-11-24T00:31:27.850Z,98910.69
2023-11-24T00:33:59.224Z,98906.92
2023-11-24T00:36:28.516Z,98911.35
2023-11-24T00:38:56.771Z,98922.17
2023-11-24T00:41:24.733Z,98931.08
2023-11-24T00:43:52.847Z,98927.41
2023-11-24T00:46:21.177Z,98925.28
2023-11-24T00:48:49.590Z,98925.54
2023-11-24T00:51:19.767Z,98925.59
2023-11-24T00:53:48.006Z,98925.38
2023-11-24T00:56:16.053Z,98925.77
2023-11-24T00:58:45.090Z,98929.85
2023-11-24T01:01:13.267Z,98926.95
2023-11-24T01:03:41.590Z,98930.77
2023-11-24T01:06:10.147Z,98943.02
2023-11-24T01:08:38.252Z,98941.66
2023-11-24T01:11:06.670Z,98936.19
2023-11-24T01:13:37.818Z,98931.35
2023-11-24T01:16:06.265Z,98935.77
2023-11-24T01:18:39.245Z,98937.29
2023-11-24T01:21:08.286Z,98936.52
2023-11-24T01:23:36.847Z,98945.80
2023-11-24T01:26:06.491Z,98953.91
2023-11-24T01:28:35.384Z,98953.27
2023-11-24T01:31:03.745Z,98963.11
2023-11-24T01:33:32.100Z,98959.09
2023-11-24T01:36:02.216Z,98956.83
2023-11-24T01:38:30.564Z,98961.11
2023-11-24T01:40:58.646Z,98957.66
2023-11-24T01:43:26.789Z,98945.30
2023-11-24T01:45:55.646Z,98942.34
2023-11-24T01:48:24.153Z,98944.80
2023-11-24T01:50:52.569Z,98941.56
2023-11-24T01:53:20.881Z,98946.75
2023-11-24T01:55:49.873Z,98937.48
2023-11-24T01:58:18.331Z,98936.17
2023-11-24T02:00:47.821Z,98935.02
2023-11-24T02:03:15.965Z,98930.84
2023-11-24T02:05:44.789Z,98933.15
2023-11-24T02:08:12.964Z,98930.23
2023-11-24T02:10:41.238Z,98927.27
2023-11-24T02:13:09.337Z,98927.93
2023-11-24T02:15:40.256Z,98938.66
2023-11-24T02:18:08.558Z,98937.63
2023-11-24T02:20:38.169Z,98937.80
2023-11-24T02:23:06.216Z,98929.99
2023-11-24T02:25:34.185Z,98931.23
2023-11-24T02:28:02.310Z,98930.90
2023-11-24T02:30:30.757Z,98927.20
2023-11-24T02:32:58.990Z,98928.91
2023-11-24T02:35:30.296Z,98925.59
2023-11-24T02:37:58.559Z,98916.98
2023-11-24T02:40:26.707Z,98920.27
2023-11-24T02:42:56.281Z,98932.59
2023-11-24T02:45:24.449Z,98936.46
2023-11-24T02:47:52.764Z,98933.15
2023-11-24T02:50:21.000Z,98933.57
2023-11-24T02:52:49.130Z,98942.46
2023-11-24T02:55:17.319Z,98945.82
2023-11-24T02:57:46.139Z,98946.19
2023-11-24T03:00:14.526Z,98938.13
2023-11-24T03:02:42.960Z,98939.92
2023-11-24T03:05:12.871Z,98945.01
2023-11-24T03:07:41.354Z,98952.36
2023-11-24T03:10:10.035Z,98947.91
2023-11-24T03:12:39.490Z,98948.71
2023-11-24T03:15:12.597Z,98957.04
2023-11-24T03:17:41.646Z,98948.14
2023-11-24T03:20:13.401Z,98950.75
2023-11-24T03:22:41.439Z,98954.05
2023-11-24T03:25:10.630Z,98954.52
2023-11-24T03:27:38.813Z,98957.70
2023-11-24T03:30:07.489Z,98959.69
2023-11-24T03:32:36.812Z,98957.19
2023-11-24T03:35:06.555Z,98945.04
2023-11-24T03:37:34.679Z,98942.34
2023-11-24T03:40:03.363Z,98940.02
2023-11-24T03:42:32.912Z,98937.06
2023-11-24T03:45:02.500Z,98936.36
2023-11-24T03:47:32.257Z,98937.31
2023-11-24T03:50:02.722Z,98928.65
2023-11-24T03:52:30.810Z,98920.27
2023-11-24T03:54:58.957Z,98915.52
2023-11-24T03:57:28.201Z,98911.05
2023-11-24T03:59:56.895Z,98905.61
2023-11-24T04:02:25.030Z,98911.49
2023-11-24T04:04:53.230Z,98909.71
2023-11-24T04:07:21.582Z,98916.36
2023-11-24T04:09:49.608Z,98917.20
2023-11-24T04:12:17.957Z,98920.59
2023-11-24T04:14:46.065Z,98921.99
2023-11-24T04:17:15.011Z,98922.23
2023-11-24T04:19:44.229Z,98925.66
2023-11-24T04:22:12.384Z,98931.15
2023-11-24T04:24:41.733Z,98932.17
2023-11-24T04:27:10.284Z,98932.91
2023-11-24T04:29:38.442Z,98927.86
2023-11-24T04:32:06.725Z,98926.90
2023-11-24T04:34:34.778Z,98931.52
2023-11-24T04:37:04.320Z,98921.03
2023-11-24T04:39:32.666Z,98920.96
2023-11-24T04:42:00.699Z,98923.38
2023-11-24T04:44:28.773Z,98915.73
2023-11-24T04:46:57.258Z,98907.16
2023-11-24T04:49:25.445Z,98902.24
2023-11-24T04:51:53.568Z,98902.13
2023-11-24T04:54:22.688Z,98901.71
2023-11-24T04:56:50.998Z,98903.17
2023-11-24T04:59:19.089Z,98905.13
2023-11-24T05:01:47.604Z,98907.20
2023-11-24T05:04:15.855Z,98911.64
2023-11-24T05:06:43.978Z,98915.30
2023-11-24T05:09:12.622Z,98918.00
2023-11-24T05:11:40.738Z,98924.71
2023-11-24T05:14:08.829Z,98929.40
2023-11-24T05:16:36.880Z,98924.05
2023-11-24T05:19:06.122Z,98925.56
2023-11-24T05:21:35.460Z,98923.77
2023-11-24T05:24:03.655Z,98924.33
2023-11-24T05:26:31.688Z,98918.85
2023-11-24T05:29:00.746Z,98919.14
2023-11-24T05:31:28.915Z,98925.86
2023-11-24T05:33:57.477Z,98927.39
2023-11-24T05:36:25.555Z,98925.48
2023-11-24T05:38:53.693Z,98923.15
2023-11-24T05:41:23.010Z,98917.57
2023-11-24T05:43:51.382Z,98911.81
2023-11-24T05:46:20.066Z,98921.33
2023-11-24T05:48:48.416Z,98916.27
2023-11-24T05:51:16.589Z,98913.07
2023-11-24T05:53:44.696Z,98919.67
2023-11-24T05:56:12.835Z,98906.54
2023-11-24T05:58:41.011Z,98909.09
2023-11-24T06:01:09.683Z,98902.90
2023-11-24T06:03:38.085Z,98899.58
2023-11-24T06:06:07.265Z,98890.85
2023-11-24T06:08:35.377Z,98889.55
2023-11-24T06:11:03.443Z,98895.16
2023-11-24T06:13:33.060Z,98890.85
2023-11-24T06:16:01.199Z,98894.00
2023-11-24T06:18:29.299Z,98889.13
2023-11-24T06:20:57.513Z,98898.54
2023-11-24T06:23:25.699Z,98908.92
2023-11-24T06:25:53.854Z,98910.60
2023-11-24T06:28:22.033Z,98915.31
2023-11-24T06:30:50.064Z,98914.04
2023-11-24T06:33:18.288Z,98910.14
2023-11-24T06:35:46.338Z,98911.93
2023-11-24T06:38:16.007Z,98915.61
2023-11-24T06:40:45.132Z,98910.77
2023-11-24T06:43:13.303Z,98913.52
2023-11-24T06:45:41.557Z,98909.52
2023-11-24T06:48:09.995Z,98911.41
2023-11-24T06:50:38.139Z,98910.16
2023-11-24T06:53:06.165Z,98912.92
2023-11-24T06:55:35.057Z,98909.97
2023-11-24T06:58:05.778Z,98916.69
2023-11-24T07:00:34.830Z,98919.44
2023-11-24T07:03:03.038Z,98917.67
2023-11-24T07:05:31.346Z,98917.79
2023-11-24T07:07:59.434Z,98913.02
2023-11-24T07:10:27.811Z,98913.99
2023-11-24T07:12:56.069Z,98911.00
2023-11-24T07:15:24.165Z,98914.88
2023-11-24T07:17:52.768Z,98911.70
2023-11-24T07:20:23.135Z,98921.48
2023-11-24T07:22:51.163Z,98924.81
2023-11-24T07:25:19.447Z,98921.10
2023-11-24T07:27:48.177Z,98912.20
2023-11-24T07:30:16.701Z,98902.73
2023-11-24T07:32:44.909Z,98906.21
2023-11-24T07:35:15.332Z,98935.60
2023-11-24T07:37:44.231Z,98954.72
2023-11-24T07:40:16.576Z,98948.95
2023-11-24T07:42:45.933Z,98952.39
2023-11-24T07:45:16.673Z,98954.92
2023-11-24T07:47:45.753Z,98953.29
2023-11-24T07:50:14.230Z,98952.37
2023-11-24T07:52:45.328Z,98950.05
2023-11-24T07:55:17.293Z,98947.38
2023-11-24T07:57:45.502Z,98941.48
2023-11-24T08:00:14.563Z,98939.95
2023-11-24T08:02:45.973Z,98937.65
2023-11-24T08:05:14.247Z,98935.07
2023-11-24T08:07:42.367Z,98932.45
2023-11-24T08:10:10.689Z,98932.05
2023-11-24T08:12:38.926Z,98924.92
2023-11-24T08:15:07.585Z,98925.07
2023-11-24T08:17:35.879Z,98922.99
2023-11-24T08:20:06.645Z,98923.05
2023-11-24T08:22:34.839Z,98926.22
2023-11-24T08:25:04.675Z,98923.63
2023-11-24T08:27:34.030Z,98921.46
2023-11-24T08:30:06.254Z,98921.45
2023-11-24T08:32:34.430Z,98917.15
2023-11-24T08:35:03.265Z,98917.17
2023-11-24T08:37:32.231Z,98912.20
2023-11-24T08:40:00.544Z,98920.90
2023-11-24T08:42:31.714Z,98920.29
2023-11-24T08:44:59.721Z,98918.40
2023-11-24T08:47:29.104Z,98925.71
2023-11-24T08:49:59.221Z,98927.52
2023-11-24T08:52:28.641Z,98932.04
2023-11-24T08:54:56.692Z,98923.34
2023-11-24T08:57:24.733Z,98919.14
2023-11-24T08:59:53.215Z,98917.38
2023-11-24T09:02:22.246Z,98904.43
2023-11-24T09:04:50.912Z,98901.36
2023-11-24T09:07:19.120Z,98896.22
2023-11-24T09:09:47.867Z,98900.43
2023-11-24T09:12:16.736Z,98902.48
2023-11-24T09:14:44.758Z,98903.66
2023-11-24T09:17:14.028Z,98902.20
2023-11-24T09:19:42.101Z,98900.69
2023-11-24T09:22:11.886Z,98902.13
2023-11-24T09:24:39.973Z,98894.69
2023-11-24T09:27:08.903Z,98887.21
2023-11-24T09:29:37.092Z,98884.98
2023-11-24T09:32:05.563Z,98882.15
2023-11-24T09:34:33.583Z,98883.35
2023-11-24T09:37:03.165Z,98882.19
2023-11-24T09:39:31.136Z,98877.08
2023-11-24T09:42:04.046Z,98876.61
2023-11-24T09:44:32.827Z,98877.77
2023-11-24T09:47:01.349Z,98876.08
2023-11-24T09:49:30.559Z,98874.06
2023-11-24T09:52:01.190Z,98869.11
2023-11-24T09:54:29.538Z,98870.44
2023-11-24T09:56:58.006Z,98866.89
2023-11-24T09:59:26.079Z,98873.64
2023-11-24T10:01:58.656Z,98860.66
2023-11-24T10:04:27.840Z,98862.85
2023-11-24T10:06:56.148Z,98859.69
2023-11-24T10:09:26.962Z,98869.77
2023-11-24T10:11:56.695Z,98857.31
2023-11-24T10:14:25.202Z,98857.67
2023-11-24T10:16:53.216Z,98858.53
2023-11-24T10:19:23.421Z,98859.98
2023-11-24T10:21:55.062Z,98853.56
2023-11-24T10:24:26.451Z,98852.41
2023-11-24T10:26:54.699Z,98851.81
2023-11-24T10:29:28.415Z,98843.91
2023-11-24T10:31:57.378Z,98844.01
2023-11-24T10:34:27.362Z,98849.69
2023-11-24T10:36:56.872Z,98846.85
2023-11-24T10:39:31.810Z,98849.45
2023-11-24T10:42:00.490Z,98850.30
2023-11-24T10:44:30.658Z,98848.02
2023-11-24T10:47:06.068Z,98828.59
2023-11-24T10:49:42.691Z,98822.25
2023-11-24T10:52:23.877Z,98815.96
2023-11-24T10:55:01.270Z,98819.52
2023-11-24T10:57:31.955Z,98825.27
2023-11-24T11:00:00.612Z,98831.91
2023-11-24T11:02:29.443Z,98826.04
2023-11-24T11:05:09.197Z,98816.46
2023-11-24T11:08:04.921Z,98807.13
2023-11-24T11:10:46.001Z,98807.09
2023-11-24T11:13:16.776Z,98801.58
2023-11-24T11:15:46.080Z,98795.70
2023-11-24T11:18:18.012Z,98794.99
2023-11-24T11:20:46.593Z,98792.88
2023-11-24T11:23:17.272Z,98788.30
2023-11-24T11:25:52.744Z,98786.05
2023-11-24T11:28:25.209Z,98784.96
2023-11-24T11:30:59.194Z,98772.80
2023-11-24T11:33:28.597Z,98779.95
2023-11-24T11:36:06.746Z,98782.63
2023-11-24T11:38:41.827Z,98786.63
2023-11-24T11:41:10.804Z,98802.27
2023-11-24T11:43:57.041Z,98795.19
2023-11-24T11:46:25.474Z,98794.39
2023-11-24T11:48:56.252Z,98789.06
2023-11-24T11:51:25.013Z,98782.80
2023-11-24T11:53:53.827Z,98778.61
2023-11-24T11:56:22.149Z,98773.25
2023-11-24T11:58:50.193Z,98772.06
2023-11-24T12:01:19.507Z,98779.91
2023-11-24T12:03:48.198Z,98771.05
2023-11-24T12:06:16.342Z,98770.33
2023-11-24T12:08:45.428Z,98758.34
2023-11-24T12:11:14.544Z,98756.40
2023-11-24T12:13:42.633Z,98753.92
2023-11-24T12:16:10.819Z,98756.12
2023-11-24T12:18:39.026Z,98751.09
2023-11-24T12:21:08.376Z,98752.82
2023-11-24T12:23:38.225Z,98741.23
2023-11-24T12:26:06.848Z,98737.41
2023-11-24T12:28:34.993Z,98743.14
2023-11-24T12:31:04.551Z,98746.33
2023-11-24T12:33:34.736Z,98742.52
2023-11-24T12:36:03.110Z,98732.41
2023-11-24T12:38:31.181Z,98737.45
2023-11-24T12:41:00.260Z,98732.71
2023-11-24T12:43:33.991Z,98732.27
2023-11-24T12:46:04.582Z,98740.27
2023-11-24T12:48:35.860Z,98732.42
2023-11-24T12:51:04.817Z,98730.95
2023-11-24T12:53:34.427Z,98715.23
2023-11-24T12:56:02.574Z,98721.92
2023-11-24T12:58:31.109Z,98723.33
2023-11-24T13:00:59.193Z,98715.43
2023-11-24T13:03:27.851Z,98710.38
2023-11-24T13:05:56.115Z,98713.00
2023-11-24T13:08:24.812Z,98713.29
2023-11-24T13:10:54.823Z,98707.80
2023-11-24T13:13:22.829Z,98710.34
2023-11-24T13:15:52.466Z,98704.92
2023-11-24T13:18:20.697Z,98703.48
2023-11-24T13:20:49.611Z,98702.22
2023-11-24T13:23:17.653Z,98703.23
2023-11-24T13:25:46.161Z,98698.19
2023-11-24T13:28:14.381Z,98694.67
2023-11-24T13:30:42.291Z,98693.94
2023-11-24T13:33:10.409Z,98692.16
2023-11-24T13:35:39.787Z,98690.54
2023-11-24T13:38:08.080Z,98686.02
2023-11-24T13:40:36.915Z,98680.80
2023-11-24T13:43:05.102Z,98680.25
2023-11-24T13:45:34.772Z,98673.20
2023-11-24T13:48:06.184Z,98662.33
2023-11-24T13:50:34.193Z,98661.14
2023-11-24T13:53:02.603Z,98668.27
2023-11-24T13:55:35.423Z,98663.25
2023-11-24T13:58:04.718Z,98665.03
2023-11-24T14:00:33.095Z,98666.97
2023-11-24T14:03:03.019Z,98661.05
2023-11-24T14:05:31.732Z,98658.17
2023-11-24T14:08:00.100Z,98660.33
2023-11-24T14:10:28.441Z,98659.21
2023-11-24T14:12:57.926Z,98656.43
2023-11-24T14:15:26.125Z,98656.70
2023-11-24T14:17:54.151Z,98656.92
2023-11-24T14:20:22.503Z,98651.92
2023-11-24T14:22:53.246Z,98655.79
2023-11-24T14:25:21.405Z,98654.35
2023-11-24T14:27:49.567Z,98651.94
2023-11-24T14:30:18.036Z,98647.33
2023-11-24T14:32:46.089Z,98643.79
2023-11-24T14:35:14.415Z,98641.47
2023-11-24T14:37:42.403Z,98637.30
2023-11-24T14:40:20.882Z,98636.13
2023-11-24T14:42:54.020Z,98626.27
2023-11-24T14:45:22.462Z,98624.73
2023-11-24T14:47:51.869Z,98627.87
2023-11-24T14:50:26.855Z,98630.44
2023-11-24T14:52:56.193Z,98638.58
2023-11-24T14:55:24.646Z,98641.64
2023-11-24T14:57:53.162Z,98636.83
2023-11-24T15:00:37.303Z,98646.10
2023-11-24T15:03:09.790Z,98648.91
2023-11-24T15:05:42.956Z,98642.45
2023-11-24T15:08:11.428Z,98644.20
2023-11-24T15:10:45.303Z,98634.93
2023-11-24T15:13:22.257Z,98637.09
2023-11-24T15:15:50.487Z,98635.23
2023-11-24T15:18:21.793Z,98637.38
2023-11-24T15:20:54.538Z,98630.09
2023-11-24T15:23:25.117Z,98629.59
2023-11-24T15:25:56.485Z,98622.14
2023-11-24T15:28:25.227Z,98625.06
2023-11-24T15:30:54.941Z,98619.67
2023-11-24T15:33:23.568Z,98620.45
2023-11-24T15:35:52.106Z,98623.31
2023-11-24T15:38:22.445Z,98621.92
2023-11-24T15:40:52.402Z,98618.23
2023-11-24T15:43:25.472Z,98615.19
2023-11-24T15:45:56.315Z,98619.58
2023-11-24T15:48:26.733Z,98622.88
2023-11-24T15:50:55.111Z,98622.27
2023-11-24T15:53:23.712Z,98622.70
2023-11-24T15:55:52.914Z,98618.79
2023-11-24T15:58:26.560Z,98612.45
2023-11-24T16:00:58.033Z,98610.45
2023-11-24T16:03:26.583Z,98609.52
2023-11-24T16:05:59.224Z,98614.45
2023-11-24T16:08:34.689Z,98611.41
2023-11-24T16:11:11.311Z,98605.05
2023-11-24T16:13:42.774Z,98609.80
2023-11-24T16:16:11.260Z,98613.56
2023-11-24T16:18:41.936Z,98612.41
2023-11-24T16:21:09.978Z,98606.52
2023-11-24T16:23:38.151Z,98611.38
2023-11-24T16:26:06.286Z,98605.79
2023-11-24T16:28:37.994Z,98605.66
2023-11-24T16:31:06.930Z,98601.83
2023-11-24T16:33:36.006Z,98597.85
2023-11-24T16:36:05.146Z,98596.98
2023-11-24T16:38:36.086Z,98591.98
2023-11-24T16:41:05.569Z,98592.21
2023-11-24T16:43:33.786Z,98590.48
2023-11-24T16:46:02.115Z,98589.80
2023-11-24T16:48:30.245Z,98586.40
2023-11-24T16:50:58.434Z,98591.98
2023-11-24T16:53:27.015Z,98598.27
2023-11-24T16:55:55.119Z,98601.55
2023-11-24T16:58:24.120Z,98613.41
2023-11-24T17:00:52.423Z,98610.25
2023-11-24T17:03:22.525Z,98610.25
2023-11-24T17:05:53.302Z,98602.13
2023-11-24T17:08:21.509Z,98605.08
2023-11-24T17:10:49.605Z,98603.41
2023-11-24T17:13:18.890Z,98605.15
2023-11-24T17:15:55.179Z,98600.44
2023-11-24T17:18:23.229Z,98594.41
2023-11-24T17:20:51.431Z,98593.15
2023-11-24T17:23:19.819Z,98589.91
2023-11-24T17:25:49.526Z,98588.31
2023-11-24T17:28:23.941Z,98586.98
2023-11-24T17:30:54.022Z,98582.85
2023-11-24T17:33:22.184Z,98580.96
2023-11-24T17:35:50.201Z,98580.56
2023-11-24T17:38:22.079Z,98575.66
2023-11-24T17:40:50.852Z,98578.15
2023-11-24T17:43:20.283Z,98573.89
2023-11-24T17:45:48.789Z,98574.61
2023-11-24T17:48:19.301Z,98574.52
2023-11-24T17:50:48.598Z,98574.00
2023-11-24T17:53:16.801Z,98576.20
2023-11-24T17:55:44.786Z,98574.08
2023-11-24T17:58:18.075Z,98576.59
2023-11-24T18:00:47.003Z,98570.98
2023-11-24T18:03:15.298Z,98571.74
2023-11-24T18:05:46.341Z,98570.77
2023-11-24T18:08:17.213Z,98568.88
2023-11-24T18:10:49.229Z,98568.29
2023-11-24T18:13:21.212Z,98572.42
2023-11-24T18:15:49.489Z,98578.63
2023-11-24T18:18:18.160Z,98579.34
2023-11-24T18:20:49.238Z,98584.98
2023-11-24T18:23:20.456Z,98587.05
2023-11-24T18:25:53.105Z,98582.95
2023-11-24T18:28:21.850Z,98581.14
2023-11-24T18:30:50.032Z,98577.44
2023-11-24T18:33:19.343Z,98579.88
2023-11-24T18:35:48.165Z,98581.15
2023-11-24T18:38:22.998Z,98581.61
2023-11-24T18:40:53.471Z,98585.61
2023-11-24T18:43:33.255Z,98584.12
2023-11-24T18:46:11.395Z,98591.85
2023-11-24T18:48:42.011Z,98592.09
2023-11-24T18:51:15.456Z,98589.91
2023-11-24T18:53:49.158Z,98587.22
2023-11-24T18:56:23.358Z,98584.50
2023-11-24T18:58:52.768Z,98587.06
2023-11-24T19:01:21.204Z,98588.71
2023-11-24T19:03:50.735Z,98589.75
2023-11-24T19:06:19.912Z,98589.69
2023-11-24T19:08:50.098Z,98581.18
2023-11-24T19:11:24.372Z,98581.94
2023-11-24T19:13:56.078Z,98584.63
2023-11-24T19:16:26.872Z,98588.02
2023-11-24T19:18:59.232Z,98585.98
2023-11-24T19:21:30.699Z,98588.81
2023-11-24T19:24:03.105Z,98582.84
2023-11-24T19:26:33.465Z,98588.08
2023-11-24T19:29:08.727Z,98585.88
2023-11-24T19:31:41.624Z,98581.16
2023-11-24T19:34:13.984Z,98578.60
2023-11-24T19:36:44.380Z,98570.61
2023-11-24T19:39:12.919Z,98574.77
2023-11-24T19:41:43.250Z,98570.98
2023-11-24T19:44:20.392Z,98569.84
2023-11-24T19:46:55.684Z,98569.05
2023-11-24T19:49:41.684Z,98568.10
2023-11-24T19:52:13.386Z,98571.88
2023-11-24T19:54:50.569Z,98569.71
2023-11-24T19:57:20.108Z,98567.84
2023-11-24T19:59:55.860Z,98571.11
2023-11-24T20:02:28.900Z,98574.23
2023-11-24T20:05:01.677Z,98578.23
2023-11-24T20:07:32.273Z,98574.31
2023-11-24T20:10:02.934Z,98574.01
2023-11-24T20:12:32.005Z,98578.48
2023-11-24T20:15:04.152Z,98578.25
2023-11-24T20:17:40.640Z,98580.58
2023-11-24T20:20:11.549Z,98579.73
2023-11-24T20:22:44.244Z,98581.02
2023-11-24T20:25:12.467Z,98579.48
2023-11-24T20:27:47.562Z,98577.71
2023-11-24T20:30:18.952Z,98577.84
2023-11-24T20:32:55.206Z,98582.89
2023-11-24T20:35:27.635Z,98578.63
2023-11-24T20:38:05.130Z,98577.11
2023-11-24T20:40:33.370Z,98584.90
2023-11-24T20:43:11.247Z,98584.42
2023-11-24T20:45:45.615Z,98581.38
2023-11-24T20:48:16.598Z,98583.48
2023-11-24T20:50:52.955Z,98581.39
2023-11-24T20:53:21.760Z,98577.73
2023-11-24T20:55:52.602Z,98571.70
2023-11-24T20:58:26.157Z,98573.45
2023-11-24T21:00:59.171Z,98570.48
2023-11-24T21:03:27.887Z,98570.45
2023-11-24T21:05:56.342Z,98574.19
2023-11-24T21:08:24.471Z,98575.05
2023-11-24T21:10:59.573Z,98579.16
2023-11-24T21:13:27.598Z,98577.83
2023-11-24T21:15:57.109Z,98574.61
2023-11-24T21:18:28.518Z,98579.34
2023-11-24T21:20:58.675Z,98574.07
2023-11-24T21:23:28.906Z,98582.45
2023-11-24T21:25:58.761Z,98587.89
2023-11-24T21:28:27.248Z,98589.30
2023-11-24T21:30:57.879Z,98594.39
2023-11-24T21:33:26.530Z,98597.02
2023-11-24T21:35:57.973Z,98598.90
2023-11-24T21:38:26.140Z,98596.77
2023-11-24T21:40:54.295Z,98596.19
2023-11-24T21:43:22.529Z,98599.04
2023-11-24T21:45:52.267Z,98612.24
2023-11-24T21:48:20.340Z,98617.07
2023-11-24T21:50:48.435Z,98621.45
2023-11-24T21:53:16.500Z,98622.43
2023-11-24T21:55:45.800Z,98627.49
2023-11-24T21:58:18.982Z,98634.68
2023-11-24T22:00:48.002Z,98635.41
2023-11-24T22:03:16.128Z,98634.29
2023-11-24T22:05:44.807Z,98633.77
2023-11-24T22:08:16.009Z,98642.29
2023-11-24T22:10:44.281Z,98646.73
2023-11-24T22:13:12.762Z,98650.08
2023-11-24T22:15:41.574Z,98647.40
2023-11-24T22:18:11.752Z,98654.45
2023-11-24T22:20:39.684Z,98653.13
2023-11-24T22:23:07.663Z,98650.48
2023-11-24T22:25:35.855Z,98653.47
2023-11-24T22:28:04.427Z,98655.38
2023-11-24T22:30:32.655Z,98661.70
2023-11-24T22:33:00.869Z,98659.24
2023-11-24T22:35:29.713Z,98660.52
2023-11-24T22:37:57.941Z,98672.89
2023-11-24T22:40:26.141Z,98672.73
2023-11-24T22:42:54.316Z,98679.19
2023-11-24T22:45:22.396Z,98679.65
2023-11-24T22:47:50.471Z,98682.25
2023-11-24T22:50:19.247Z,98685.76
2023-11-24T22:52:48.062Z,98685.25
2023-11-24T22:55:16.076Z,98689.40
2023-11-24T22:57:44.067Z,98696.56
2023-11-24T23:00:35.555Z,98701.80
2023-11-24T23:03:05.022Z,98702.22
2023-11-24T23:05:33.409Z,98706.92
2023-11-24T23:08:01.511Z,98712.13
2023-11-24T23:10:32.173Z,98715.77
2023-11-24T23:13:02.962Z,98722.05
2023-11-24T23:15:32.597Z,98724.23
2023-11-24T23:18:01.307Z,98716.77
2023-11-24T23:20:30.008Z,98716.66
2023-11-24T23:22:58.054Z,98722.11
2023-11-24T23:25:26.216Z,98725.45
2023-11-24T23:27:55.046Z,98725.63
2023-11-24T23:30:23.153Z,98733.83
2023-11-24T23:32:53.793Z,98734.07
2023-11-24T23:35:24.369Z,98731.26
2023-11-24T23:37:52.466Z,98735.96
2023-11-24T23:40:24.125Z,98733.20
2023-11-24T23:42:52.249Z,98739.09
2023-11-24T23:45:21.984Z,98741.45
2023-11-24T23:47:51.048Z,98738.86
2023-11-24T23:50:19.132Z,98738.83
2023-11-24T23:52:47.762Z,98737.84
2023-11-24T23:55:15.993Z,98742.71
2023-11-24T23:57:45.347Z,98750.85
